WAT5643 MWCR-KATL
Flight info
| Callsign | WAT5643 |
|---|---|
| Flight time | 2h 32m |
| Altitude | 36000 |
| Route | SRAY2 RIKEL DCT XOPLI UG448 IKBIX/N0456F370 Y183 PEAKY/N0455F360 Q118 SHEEK Q110 DAWWN DCT BEORN HOBTT3 |
| Aircraft | A21N/M-SDE3FGHIJ5RWY/LB1 |
Departure
| Time | 2026-05-07 18:37 |
|---|---|
| Airport | Owen Roberts International Airport (MWCR) |
Arrival
| Time | 2026-05-07 21:09 |
|---|---|
| Airport | Hartsfield Jackson Atlanta International Airport (KATL) |
| Time | Latitude | Longitude | Altitude | Speed | Heading |
|---|---|---|---|---|---|
| 2026-05-07 18:28 | 19.29467 | -81.35651 | 12 ft | 0 kts | 256° |
| 2026-05-07 18:31 | 19.29466 | -81.35652 | 12 ft | 0 kts | 256° |
| 2026-05-07 18:31 | 19.29464 | -81.35664 | 12 ft | 3 kts | 260° |
| 2026-05-07 18:31 | 19.29460 | -81.35690 | 12 ft | 4 kts | 259° |
| 2026-05-07 18:31 | 19.29452 | -81.35727 | 12 ft | 6 kts | 257° |
| 2026-05-07 18:32 | 19.29441 | -81.35775 | 12 ft | 7 kts | 257° |
| 2026-05-07 18:32 | 19.29416 | -81.35821 | 12 ft | 7 kts | 198° |
| 2026-05-07 18:32 | 19.29364 | -81.35811 | 12 ft | 8 kts | 166° |
| 2026-05-07 18:32 | 19.29313 | -81.35799 | 12 ft | 8 kts | 175° |
| 2026-05-07 18:33 | 19.29270 | -81.35827 | 12 ft | 9 kts | 246° |
| 2026-05-07 18:33 | 19.29253 | -81.35891 | 12 ft | 10 kts | 255° |
| 2026-05-07 18:33 | 19.29234 | -81.35967 | 12 ft | 11 kts | 255° |
| 2026-05-07 18:33 | 19.29213 | -81.36052 | 12 ft | 12 kts | 256° |
| 2026-05-07 18:34 | 19.29192 | -81.36143 | 12 ft | 12 kts | 257° |
| 2026-05-07 18:34 | 19.29170 | -81.36238 | 12 ft | 13 kts | 256° |
| 2026-05-07 18:34 | 19.29146 | -81.36338 | 12 ft | 13 kts | 256° |
| 2026-05-07 18:34 | 19.29121 | -81.36443 | 12 ft | 14 kts | 256° |
| 2026-05-07 18:35 | 19.29097 | -81.36545 | 12 ft | 14 kts | 256° |
| 2026-05-07 18:35 | 19.29083 | -81.36608 | 12 ft | 14 kts | 257° |
| 2026-05-07 18:35 | 19.29081 | -81.36676 | 12 ft | 8 kts | 289° |
| 2026-05-07 18:35 | 19.29085 | -81.36726 | 12 ft | 9 kts | 244° |
| 2026-05-07 18:36 | 19.29058 | -81.36719 | 12 ft | 6 kts | 88° |
| 2026-05-07 18:36 | 19.29059 | -81.36715 | 12 ft | 0 kts | 79° |
| 2026-05-07 18:36 | 19.29105 | -81.36507 | 12 ft | 73 kts | 76° |
| 2026-05-07 18:36 | 19.29270 | -81.35841 | 12 ft | 142 kts | 77° |
| 2026-05-07 18:37 | 19.29508 | -81.34771 | 200 ft | 183 kts | 79° |
| 2026-05-07 18:37 | 19.29770 | -81.33588 | 1038 ft | 184 kts | 76° |
| 2026-05-07 18:37 | 19.30342 | -81.32555 | 2105 ft | 182 kts | 44° |
| 2026-05-07 18:37 | 19.31387 | -81.32100 | 2727 ft | 194 kts | 15° |
| 2026-05-07 18:38 | 19.32704 | -81.31914 | 3261 ft | 211 kts | 10° |
| 2026-05-07 18:38 | 19.34098 | -81.31644 | 3763 ft | 225 kts | 26° |
| 2026-05-07 18:38 | 19.35446 | -81.30691 | 4263 ft | 242 kts | 44° |
| 2026-05-07 18:38 | 19.36762 | -81.29408 | 4918 ft | 259 kts | 46° |
| 2026-05-07 18:39 | 19.38133 | -81.28082 | 5705 ft | 269 kts | 44° |
| 2026-05-07 18:39 | 19.39488 | -81.26828 | 6564 ft | 272 kts | 43° |
| 2026-05-07 18:39 | 19.40856 | -81.25603 | 7370 ft | 276 kts | 41° |
| 2026-05-07 18:39 | 19.41918 | -81.24667 | 7943 ft | 279 kts | 41° |
| 2026-05-07 18:40 | 19.43262 | -81.23495 | 8625 ft | 283 kts | 40° |
| 2026-05-07 18:40 | 19.44721 | -81.22231 | 9326 ft | 287 kts | 40° |
| 2026-05-07 18:40 | 19.46411 | -81.20769 | 10108 ft | 291 kts | 40° |
| 2026-05-07 18:40 | 19.48068 | -81.19356 | 10693 ft | 301 kts | 36° |
| 2026-05-07 18:41 | 19.50116 | -81.18400 | 11019 ft | 321 kts | 11° |
| 2026-05-07 18:41 | 19.52325 | -81.18445 | 11505 ft | 332 kts | 351° |
| 2026-05-07 18:41 | 19.54354 | -81.18842 | 12147 ft | 334 kts | 351° |
| 2026-05-07 18:41 | 19.56375 | -81.19222 | 12758 ft | 336 kts | 351° |
| 2026-05-07 18:42 | 19.58435 | -81.19601 | 13364 ft | 339 kts | 351° |
| 2026-05-07 18:42 | 19.60485 | -81.19967 | 13936 ft | 341 kts | 354° |
| 2026-05-07 18:42 | 19.62645 | -81.19895 | 14460 ft | 342 kts | 14° |
| 2026-05-07 18:42 | 19.64598 | -81.19231 | 15051 ft | 341 kts | 23° |
| 2026-05-07 18:43 | 19.66434 | -81.18428 | 15612 ft | 341 kts | 25° |
| 2026-05-07 18:43 | 19.68297 | -81.17588 | 16154 ft | 343 kts | 25° |
| 2026-05-07 18:43 | 19.70277 | -81.16714 | 16730 ft | 345 kts | 25° |
| 2026-05-07 18:43 | 19.72194 | -81.15887 | 17279 ft | 346 kts | 25° |
| 2026-05-07 18:44 | 19.74165 | -81.15053 | 17819 ft | 347 kts | 24° |
| 2026-05-07 18:44 | 19.76346 | -81.14141 | 18376 ft | 350 kts | 24° |
| 2026-05-07 18:44 | 19.78414 | -81.13283 | 18870 ft | 353 kts | 24° |
| 2026-05-07 18:44 | 19.80440 | -81.12446 | 19336 ft | 356 kts | 24° |
| 2026-05-07 18:45 | 19.82533 | -81.11585 | 19806 ft | 359 kts | 24° |
| 2026-05-07 18:45 | 19.84654 | -81.10714 | 20286 ft | 361 kts | 23° |
| 2026-05-07 18:45 | 19.86823 | -81.09823 | 20748 ft | 364 kts | 23° |
| 2026-05-07 18:45 | 19.89008 | -81.08927 | 21195 ft | 368 kts | 23° |
| 2026-05-07 18:46 | 19.91152 | -81.08047 | 21628 ft | 371 kts | 23° |
| 2026-05-07 18:46 | 19.93384 | -81.07129 | 22058 ft | 374 kts | 23° |
| 2026-05-07 18:46 | 19.95630 | -81.06206 | 22485 ft | 377 kts | 22° |
| 2026-05-07 18:46 | 19.97888 | -81.05347 | 22895 ft | 382 kts | 17° |
| 2026-05-07 18:47 | 20.00270 | -81.04844 | 23313 ft | 386 kts | 8° |
| 2026-05-07 18:47 | 20.02695 | -81.04754 | 23737 ft | 391 kts | 359° |
| 2026-05-07 18:47 | 20.05157 | -81.05001 | 24180 ft | 394 kts | 355° |
| 2026-05-07 18:47 | 20.07585 | -81.05325 | 24615 ft | 396 kts | 354° |
| 2026-05-07 18:48 | 20.09995 | -81.05660 | 25020 ft | 398 kts | 354° |
| 2026-05-07 18:48 | 20.12411 | -81.05994 | 25435 ft | 400 kts | 354° |
| 2026-05-07 18:48 | 20.14884 | -81.06335 | 25854 ft | 402 kts | 354° |
| 2026-05-07 18:48 | 20.17196 | -81.06649 | 26231 ft | 403 kts | 354° |
| 2026-05-07 18:49 | 20.19278 | -81.06930 | 26553 ft | 405 kts | 354° |
| 2026-05-07 18:49 | 20.21836 | -81.07273 | 26944 ft | 407 kts | 354° |
| 2026-05-07 18:49 | 20.24337 | -81.07608 | 27317 ft | 409 kts | 354° |
| 2026-05-07 18:49 | 20.26841 | -81.07943 | 27683 ft | 411 kts | 354° |
| 2026-05-07 18:50 | 20.29421 | -81.08287 | 28051 ft | 413 kts | 354° |
| 2026-05-07 18:50 | 20.31977 | -81.08628 | 28385 ft | 415 kts | 354° |
| 2026-05-07 18:50 | 20.34547 | -81.08971 | 28719 ft | 418 kts | 353° |
| 2026-05-07 18:50 | 20.37167 | -81.09320 | 29062 ft | 420 kts | 353° |
| 2026-05-07 18:51 | 20.39759 | -81.09665 | 29391 ft | 422 kts | 353° |
| 2026-05-07 18:51 | 20.42339 | -81.10008 | 29706 ft | 424 kts | 353° |
| 2026-05-07 18:51 | 20.44949 | -81.10356 | 30016 ft | 426 kts | 353° |
| 2026-05-07 18:51 | 20.47613 | -81.10712 | 30343 ft | 428 kts | 353° |
| 2026-05-07 18:52 | 20.50273 | -81.11066 | 30663 ft | 429 kts | 353° |
| 2026-05-07 18:52 | 20.52951 | -81.11423 | 30963 ft | 431 kts | 353° |
| 2026-05-07 18:52 | 20.55580 | -81.11774 | 31242 ft | 433 kts | 352° |
| 2026-05-07 18:52 | 20.58231 | -81.12128 | 31521 ft | 435 kts | 352° |
| 2026-05-07 18:53 | 20.60534 | -81.12437 | 31759 ft | 437 kts | 352° |
| 2026-05-07 18:53 | 20.62703 | -81.12727 | 31979 ft | 438 kts | 352° |
| 2026-05-07 18:53 | 20.65520 | -81.13104 | 32269 ft | 439 kts | 352° |
| 2026-05-07 18:53 | 20.68497 | -81.13502 | 32664 ft | 438 kts | 352° |
| 2026-05-07 18:54 | 20.71556 | -81.13912 | 33119 ft | 436 kts | 352° |
| 2026-05-07 18:54 | 20.74670 | -81.14330 | 33573 ft | 434 kts | 352° |
| 2026-05-07 18:54 | 20.77710 | -81.14738 | 34004 ft | 433 kts | 352° |
| 2026-05-07 18:54 | 20.80751 | -81.15147 | 34399 ft | 431 kts | 352° |
| 2026-05-07 18:55 | 20.83788 | -81.15555 | 34728 ft | 431 kts | 352° |
| 2026-05-07 18:55 | 20.86804 | -81.15960 | 34998 ft | 432 kts | 352° |
| 2026-05-07 18:55 | 20.89851 | -81.16370 | 35248 ft | 433 kts | 352° |
| 2026-05-07 18:55 | 20.92903 | -81.16780 | 35492 ft | 434 kts | 352° |
| 2026-05-07 18:56 | 20.95980 | -81.17193 | 35725 ft | 435 kts | 352° |
| 2026-05-07 18:56 | 20.99024 | -81.17602 | 35929 ft | 436 kts | 352° |
| 2026-05-07 18:56 | 21.02144 | -81.18023 | 36010 ft | 437 kts | 352° |
| 2026-05-07 18:57 | 21.08301 | -81.18851 | 36015 ft | 437 kts | 352° |
| 2026-05-07 18:57 | 21.14465 | -81.19681 | 36017 ft | 438 kts | 352° |
| 2026-05-07 18:58 | 21.20390 | -81.20479 | 36016 ft | 437 kts | 351° |
| 2026-05-07 18:58 | 21.26565 | -81.21313 | 36016 ft | 437 kts | 351° |
| 2026-05-07 18:59 | 21.32392 | -81.22100 | 36016 ft | 437 kts | 352° |
| 2026-05-07 18:59 | 21.38329 | -81.22903 | 36016 ft | 437 kts | 352° |
| 2026-05-07 19:00 | 21.44640 | -81.23756 | 36016 ft | 437 kts | 351° |
| 2026-05-07 19:00 | 21.50963 | -81.24611 | 36016 ft | 437 kts | 351° |
| 2026-05-07 19:01 | 21.57298 | -81.25470 | 36015 ft | 437 kts | 351° |
| 2026-05-07 19:01 | 21.63642 | -81.26330 | 36015 ft | 437 kts | 351° |
| 2026-05-07 19:02 | 21.69918 | -81.27181 | 36016 ft | 437 kts | 351° |
| 2026-05-07 19:02 | 21.76272 | -81.28046 | 36015 ft | 437 kts | 351° |
| 2026-05-07 19:03 | 21.82558 | -81.28902 | 36016 ft | 437 kts | 351° |
| 2026-05-07 19:03 | 21.88898 | -81.29764 | 36016 ft | 437 kts | 351° |
| 2026-05-07 19:04 | 21.95203 | -81.30622 | 36015 ft | 437 kts | 351° |
| 2026-05-07 19:04 | 22.01461 | -81.31477 | 36013 ft | 437 kts | 351° |
| 2026-05-07 19:05 | 22.07793 | -81.32341 | 36008 ft | 437 kts | 351° |
| 2026-05-07 19:05 | 22.13987 | -81.33188 | 36005 ft | 437 kts | 351° |
| 2026-05-07 19:06 | 22.20290 | -81.34051 | 36001 ft | 437 kts | 351° |
| 2026-05-07 19:06 | 22.29724 | -81.35344 | 36009 ft | 437 kts | 351° |
| 2026-05-07 19:07 | 22.32898 | -81.35780 | 36011 ft | 437 kts | 351° |
| 2026-05-07 19:07 | 22.42344 | -81.37080 | 36007 ft | 437 kts | 351° |
| 2026-05-07 19:08 | 22.48629 | -81.37949 | 36007 ft | 437 kts | 351° |
| 2026-05-07 19:08 | 22.54957 | -81.38824 | 36008 ft | 437 kts | 351° |
| 2026-05-07 19:09 | 22.61227 | -81.39583 | 36005 ft | 438 kts | 354° |
| 2026-05-07 19:09 | 22.66828 | -81.39705 | 36007 ft | 439 kts | 360° |
| 2026-05-07 19:10 | 22.72395 | -81.39252 | 36008 ft | 441 kts | 4° |
| 2026-05-07 19:10 | 22.78392 | -81.38512 | 36009 ft | 441 kts | 4° |
| 2026-05-07 19:11 | 22.84625 | -81.37733 | 36011 ft | 441 kts | 4° |
| 2026-05-07 19:11 | 22.90872 | -81.36958 | 36015 ft | 441 kts | 4° |
| 2026-05-07 19:12 | 22.97216 | -81.36173 | 36020 ft | 441 kts | 4° |
| 2026-05-07 19:12 | 23.03531 | -81.35393 | 36020 ft | 441 kts | 4° |
| 2026-05-07 19:13 | 23.09746 | -81.34627 | 36016 ft | 441 kts | 4° |
| 2026-05-07 19:13 | 23.15887 | -81.33865 | 36015 ft | 440 kts | 4° |
| 2026-05-07 19:14 | 23.22166 | -81.33070 | 36011 ft | 440 kts | 4° |
| 2026-05-07 19:14 | 23.28490 | -81.32272 | 36009 ft | 440 kts | 4° |
| 2026-05-07 19:15 | 23.34781 | -81.31484 | 36006 ft | 441 kts | 4° |
| 2026-05-07 19:15 | 23.41101 | -81.30692 | 36007 ft | 441 kts | 4° |
| 2026-05-07 19:16 | 23.47472 | -81.29894 | 36008 ft | 441 kts | 4° |
| 2026-05-07 19:16 | 23.53776 | -81.29104 | 36008 ft | 441 kts | 4° |
| 2026-05-07 19:17 | 23.60067 | -81.28315 | 36011 ft | 441 kts | 4° |
| 2026-05-07 19:17 | 23.66337 | -81.27528 | 36015 ft | 441 kts | 4° |
| 2026-05-07 19:18 | 23.71092 | -81.26931 | 36016 ft | 441 kts | 4° |
| 2026-05-07 19:18 | 23.77216 | -81.26162 | 36016 ft | 441 kts | 4° |
| 2026-05-07 19:19 | 23.83579 | -81.25363 | 36017 ft | 441 kts | 4° |
| 2026-05-07 19:19 | 23.89858 | -81.24576 | 36017 ft | 440 kts | 4° |
| 2026-05-07 19:20 | 23.96150 | -81.23788 | 36021 ft | 440 kts | 4° |
| 2026-05-07 19:20 | 24.02366 | -81.22980 | 36027 ft | 442 kts | 5° |
| 2026-05-07 19:21 | 24.08731 | -81.22049 | 36030 ft | 441 kts | 5° |
| 2026-05-07 19:21 | 24.14939 | -81.21143 | 36030 ft | 441 kts | 5° |
| 2026-05-07 19:22 | 24.21222 | -81.20237 | 36027 ft | 441 kts | 5° |
| 2026-05-07 19:22 | 24.27523 | -81.19331 | 36022 ft | 441 kts | 4° |
| 2026-05-07 19:23 | 24.33882 | -81.18417 | 36029 ft | 441 kts | 4° |
| 2026-05-07 19:23 | 24.40190 | -81.17512 | 36032 ft | 442 kts | 4° |
| 2026-05-07 19:24 | 24.46520 | -81.16604 | 36033 ft | 442 kts | 4° |
| 2026-05-07 19:24 | 24.52882 | -81.15752 | 36029 ft | 440 kts | 2° |
| 2026-05-07 19:25 | 24.59258 | -81.15540 | 36032 ft | 437 kts | 355° |
| 2026-05-07 19:25 | 24.65599 | -81.16124 | 36038 ft | 435 kts | 349° |
| 2026-05-07 19:26 | 24.71102 | -81.17164 | 36042 ft | 435 kts | 347° |
| 2026-05-07 19:26 | 24.77399 | -81.18438 | 36042 ft | 435 kts | 347° |
| 2026-05-07 19:27 | 24.83666 | -81.19704 | 36040 ft | 435 kts | 347° |
| 2026-05-07 19:27 | 24.89926 | -81.20966 | 36037 ft | 434 kts | 347° |
| 2026-05-07 19:28 | 24.96088 | -81.22208 | 36037 ft | 434 kts | 346° |
| 2026-05-07 19:28 | 25.02321 | -81.23467 | 36038 ft | 434 kts | 346° |
| 2026-05-07 19:29 | 25.08538 | -81.24722 | 36037 ft | 434 kts | 346° |
| 2026-05-07 19:29 | 25.14681 | -81.25964 | 36036 ft | 434 kts | 346° |
| 2026-05-07 19:30 | 25.20892 | -81.27222 | 36031 ft | 434 kts | 346° |
| 2026-05-07 19:30 | 25.27100 | -81.28480 | 36027 ft | 434 kts | 346° |
| 2026-05-07 19:31 | 25.33256 | -81.29728 | 36027 ft | 433 kts | 346° |
| 2026-05-07 19:31 | 25.39387 | -81.30973 | 36020 ft | 433 kts | 346° |
| 2026-05-07 19:32 | 25.45578 | -81.32230 | 36016 ft | 433 kts | 346° |
| 2026-05-07 19:32 | 25.51758 | -81.33488 | 36010 ft | 434 kts | 346° |
| 2026-05-07 19:33 | 25.57941 | -81.34747 | 36006 ft | 433 kts | 346° |
| 2026-05-07 19:33 | 25.64042 | -81.35992 | 35999 ft | 433 kts | 346° |
| 2026-05-07 19:34 | 25.69765 | -81.37161 | 36000 ft | 433 kts | 346° |
| 2026-05-07 19:34 | 25.75917 | -81.38419 | 36000 ft | 433 kts | 346° |
| 2026-05-07 19:35 | 25.82092 | -81.39683 | 36002 ft | 434 kts | 346° |
| 2026-05-07 19:35 | 25.88252 | -81.40947 | 35998 ft | 433 kts | 346° |
| 2026-05-07 19:36 | 25.94408 | -81.42213 | 35998 ft | 432 kts | 346° |
| 2026-05-07 19:36 | 26.00555 | -81.43479 | 36008 ft | 433 kts | 346° |
| 2026-05-07 19:37 | 26.06681 | -81.44745 | 36013 ft | 433 kts | 346° |
| 2026-05-07 19:37 | 26.12661 | -81.45974 | 36013 ft | 433 kts | 346° |
| 2026-05-07 19:38 | 26.17667 | -81.47002 | 36016 ft | 433 kts | 346° |
| 2026-05-07 19:38 | 26.23857 | -81.48286 | 36013 ft | 433 kts | 346° |
| 2026-05-07 19:39 | 26.29977 | -81.49560 | 36016 ft | 433 kts | 345° |
| 2026-05-07 19:39 | 26.36107 | -81.50841 | 36012 ft | 433 kts | 345° |
| 2026-05-07 19:40 | 26.42296 | -81.52136 | 36016 ft | 433 kts | 345° |
| 2026-05-07 19:40 | 26.48456 | -81.53426 | 36020 ft | 433 kts | 345° |
| 2026-05-07 19:41 | 26.54594 | -81.54714 | 36021 ft | 433 kts | 345° |
| 2026-05-07 19:41 | 26.60728 | -81.56003 | 36024 ft | 433 kts | 345° |
| 2026-05-07 19:42 | 26.66830 | -81.57286 | 36020 ft | 433 kts | 345° |
| 2026-05-07 19:42 | 26.72980 | -81.58581 | 36017 ft | 434 kts | 345° |
| 2026-05-07 19:43 | 26.79166 | -81.59886 | 36017 ft | 434 kts | 345° |
| 2026-05-07 19:43 | 26.85302 | -81.61182 | 36014 ft | 434 kts | 345° |
| 2026-05-07 19:44 | 26.91508 | -81.62498 | 36004 ft | 434 kts | 345° |
| 2026-05-07 19:44 | 26.97641 | -81.63802 | 36002 ft | 434 kts | 345° |
| 2026-05-07 19:45 | 27.03840 | -81.65118 | 35998 ft | 433 kts | 344° |
| 2026-05-07 19:45 | 27.09936 | -81.66439 | 35997 ft | 433 kts | 344° |
| 2026-05-07 19:46 | 27.15302 | -81.67633 | 35993 ft | 433 kts | 344° |
| 2026-05-07 19:46 | 27.20941 | -81.68894 | 35994 ft | 433 kts | 343° |
| 2026-05-07 19:47 | 27.27116 | -81.70277 | 35991 ft | 433 kts | 343° |
| 2026-05-07 19:47 | 27.33257 | -81.71655 | 35987 ft | 432 kts | 343° |
| 2026-05-07 19:48 | 27.39346 | -81.73025 | 35986 ft | 432 kts | 343° |
| 2026-05-07 19:48 | 27.45496 | -81.74412 | 35986 ft | 432 kts | 343° |
| 2026-05-07 19:49 | 27.51585 | -81.75837 | 35986 ft | 431 kts | 341° |
| 2026-05-07 19:49 | 27.57374 | -81.77782 | 35985 ft | 427 kts | 335° |
| 2026-05-07 19:50 | 27.62789 | -81.80339 | 35986 ft | 423 kts | 329° |
| 2026-05-07 19:50 | 27.68084 | -81.83600 | 35988 ft | 421 kts | 325° |
| 2026-05-07 19:51 | 27.72734 | -81.86739 | 35989 ft | 420 kts | 324° |
| 2026-05-07 19:51 | 27.77961 | -81.90280 | 35995 ft | 420 kts | 324° |
| 2026-05-07 19:52 | 27.83063 | -81.93735 | 36001 ft | 420 kts | 324° |
| 2026-05-07 19:52 | 27.87920 | -81.97025 | 36006 ft | 420 kts | 324° |
| 2026-05-07 19:53 | 27.92326 | -82.00013 | 36007 ft | 420 kts | 324° |
| 2026-05-07 19:53 | 27.96855 | -82.03088 | 36010 ft | 421 kts | 324° |
| 2026-05-07 19:54 | 28.02022 | -82.06605 | 36009 ft | 420 kts | 324° |
| 2026-05-07 19:54 | 28.07242 | -82.10156 | 36011 ft | 419 kts | 324° |
| 2026-05-07 19:55 | 28.12319 | -82.13684 | 36011 ft | 417 kts | 323° |
| 2026-05-07 19:55 | 28.17384 | -82.17285 | 36011 ft | 418 kts | 323° |
| 2026-05-07 19:56 | 28.22430 | -82.20882 | 36013 ft | 417 kts | 323° |
| 2026-05-07 19:56 | 28.27512 | -82.24505 | 36012 ft | 418 kts | 323° |
| 2026-05-07 19:57 | 28.32578 | -82.28121 | 36013 ft | 418 kts | 323° |
| 2026-05-07 19:57 | 28.37658 | -82.31751 | 36006 ft | 418 kts | 323° |
| 2026-05-07 19:58 | 28.42715 | -82.35370 | 36010 ft | 418 kts | 322° |
| 2026-05-07 19:58 | 28.47771 | -82.38990 | 36019 ft | 417 kts | 322° |
| 2026-05-07 19:59 | 28.52842 | -82.42628 | 36020 ft | 417 kts | 322° |
| 2026-05-07 19:59 | 28.57873 | -82.46241 | 36019 ft | 417 kts | 322° |
| 2026-05-07 20:00 | 28.62894 | -82.49850 | 36018 ft | 417 kts | 322° |
| 2026-05-07 20:00 | 28.67915 | -82.53463 | 36016 ft | 416 kts | 322° |
| 2026-05-07 20:01 | 28.72897 | -82.57053 | 36017 ft | 416 kts | 322° |
| 2026-05-07 20:01 | 28.77962 | -82.60708 | 36012 ft | 416 kts | 322° |
| 2026-05-07 20:02 | 28.82987 | -82.64339 | 36016 ft | 416 kts | 322° |
| 2026-05-07 20:02 | 28.87984 | -82.67953 | 36018 ft | 416 kts | 321° |
| 2026-05-07 20:03 | 28.92983 | -82.71572 | 36018 ft | 416 kts | 321° |
| 2026-05-07 20:03 | 28.98005 | -82.75214 | 36013 ft | 415 kts | 321° |
| 2026-05-07 20:04 | 29.02965 | -82.78813 | 36007 ft | 415 kts | 321° |
| 2026-05-07 20:04 | 29.07416 | -82.82051 | 36008 ft | 415 kts | 321° |
| 2026-05-07 20:05 | 29.11538 | -82.85055 | 36010 ft | 415 kts | 321° |
| 2026-05-07 20:05 | 29.15413 | -82.87882 | 36008 ft | 415 kts | 321° |
| 2026-05-07 20:06 | 29.19453 | -82.90832 | 36001 ft | 414 kts | 321° |
| 2026-05-07 20:06 | 29.23367 | -82.93684 | 35998 ft | 414 kts | 321° |
| 2026-05-07 20:07 | 29.27529 | -82.96699 | 35991 ft | 414 kts | 321° |
| 2026-05-07 20:07 | 29.31723 | -82.99751 | 35986 ft | 414 kts | 320° |
| 2026-05-07 20:08 | 29.35945 | -83.02834 | 35983 ft | 415 kts | 320° |
| 2026-05-07 20:08 | 29.40093 | -83.05871 | 35986 ft | 414 kts | 320° |
| 2026-05-07 20:09 | 29.44248 | -83.08914 | 35978 ft | 412 kts | 320° |
| 2026-05-07 20:10 | 29.50464 | -83.13477 | 35991 ft | 413 kts | 320° |
| 2026-05-07 20:10 | 29.53941 | -83.16032 | 35990 ft | 412 kts | 320° |
| 2026-05-07 20:11 | 29.58124 | -83.19109 | 35999 ft | 412 kts | 320° |
| 2026-05-07 20:11 | 29.62448 | -83.22292 | 35997 ft | 412 kts | 320° |
| 2026-05-07 20:12 | 29.67323 | -83.25884 | 35991 ft | 412 kts | 320° |
| 2026-05-07 20:12 | 29.72182 | -83.29472 | 35989 ft | 411 kts | 320° |
| 2026-05-07 20:13 | 29.77079 | -83.33090 | 35976 ft | 411 kts | 320° |
| 2026-05-07 20:13 | 29.81963 | -83.36704 | 35969 ft | 411 kts | 320° |
| 2026-05-07 20:14 | 29.86840 | -83.40317 | 35963 ft | 411 kts | 320° |
| 2026-05-07 20:14 | 29.91079 | -83.43462 | 35969 ft | 411 kts | 320° |
| 2026-05-07 20:15 | 29.95258 | -83.46564 | 35971 ft | 410 kts | 320° |
| 2026-05-07 20:15 | 29.99896 | -83.50013 | 35978 ft | 410 kts | 319° |
| 2026-05-07 20:16 | 30.04588 | -83.53507 | 35988 ft | 410 kts | 319° |
| 2026-05-07 20:16 | 30.09473 | -83.57153 | 35989 ft | 410 kts | 319° |
| 2026-05-07 20:17 | 30.13659 | -83.60283 | 35990 ft | 411 kts | 319° |
| 2026-05-07 20:17 | 30.17575 | -83.63210 | 35985 ft | 410 kts | 319° |
| 2026-05-07 20:18 | 30.22416 | -83.66794 | 35974 ft | 410 kts | 320° |
| 2026-05-07 20:18 | 30.27300 | -83.70387 | 35959 ft | 410 kts | 319° |
| 2026-05-07 20:19 | 30.31373 | -83.73395 | 35955 ft | 411 kts | 319° |
| 2026-05-07 20:19 | 30.35467 | -83.76427 | 35959 ft | 411 kts | 319° |
| 2026-05-07 20:20 | 30.39563 | -83.79467 | 35955 ft | 410 kts | 319° |
| 2026-05-07 20:21 | 30.48562 | -83.86161 | 35944 ft | 411 kts | 319° |
| 2026-05-07 20:21 | 30.53239 | -83.89644 | 35942 ft | 412 kts | 319° |
| 2026-05-07 20:22 | 30.57652 | -83.92937 | 35938 ft | 412 kts | 319° |
| 2026-05-07 20:22 | 30.62261 | -83.96379 | 35936 ft | 411 kts | 319° |
| 2026-05-07 20:23 | 30.67022 | -83.99937 | 35939 ft | 412 kts | 319° |
| 2026-05-07 20:23 | 30.71629 | -84.03387 | 35938 ft | 412 kts | 319° |
| 2026-05-07 20:24 | 30.75367 | -84.06188 | 35942 ft | 413 kts | 319° |
| 2026-05-07 20:24 | 30.79353 | -84.09177 | 35949 ft | 412 kts | 319° |
| 2026-05-07 20:25 | 30.84064 | -84.12717 | 35951 ft | 413 kts | 319° |
| 2026-05-07 20:25 | 30.88714 | -84.16212 | 35950 ft | 413 kts | 319° |
| 2026-05-07 20:26 | 30.93303 | -84.19667 | 35953 ft | 412 kts | 319° |
| 2026-05-07 20:26 | 30.97756 | -84.23023 | 35953 ft | 412 kts | 319° |
| 2026-05-07 20:27 | 31.02630 | -84.26701 | 35957 ft | 413 kts | 319° |
| 2026-05-07 20:27 | 31.07266 | -84.30202 | 35957 ft | 412 kts | 319° |
| 2026-05-07 20:28 | 31.11290 | -84.33246 | 35954 ft | 412 kts | 319° |
| 2026-05-07 20:28 | 31.14192 | -84.35442 | 35953 ft | 413 kts | 319° |
| 2026-05-07 20:29 | 31.19084 | -84.39151 | 35948 ft | 411 kts | 319° |
| 2026-05-07 20:29 | 31.23301 | -84.42352 | 35947 ft | 412 kts | 318° |
| 2026-05-07 20:30 | 31.28109 | -84.46005 | 35949 ft | 412 kts | 318° |
| 2026-05-07 20:30 | 31.32957 | -84.49702 | 35948 ft | 412 kts | 318° |
| 2026-05-07 20:31 | 31.37734 | -84.53350 | 35944 ft | 411 kts | 318° |
| 2026-05-07 20:31 | 31.42501 | -84.56986 | 35947 ft | 410 kts | 318° |
| 2026-05-07 20:32 | 31.46504 | -84.59912 | 35948 ft | 415 kts | 321° |
| 2026-05-07 20:32 | 31.51675 | -84.62991 | 35945 ft | 421 kts | 326° |
| 2026-05-07 20:33 | 31.57066 | -84.65709 | 35950 ft | 422 kts | 326° |
| 2026-05-07 20:33 | 31.61975 | -84.68151 | 35887 ft | 422 kts | 326° |
| 2026-05-07 20:33 | 31.64207 | -84.69265 | 35639 ft | 421 kts | 326° |
| 2026-05-07 20:34 | 31.66653 | -84.70487 | 35376 ft | 420 kts | 326° |
| 2026-05-07 20:34 | 31.69297 | -84.71809 | 35094 ft | 421 kts | 326° |
| 2026-05-07 20:34 | 31.71875 | -84.73099 | 34816 ft | 423 kts | 326° |
| 2026-05-07 20:34 | 31.74551 | -84.74442 | 34531 ft | 422 kts | 326° |
| 2026-05-07 20:35 | 31.77273 | -84.75809 | 34240 ft | 424 kts | 326° |
| 2026-05-07 20:35 | 31.80020 | -84.77190 | 33951 ft | 425 kts | 326° |
| 2026-05-07 20:35 | 31.82717 | -84.78548 | 33667 ft | 427 kts | 326° |
| 2026-05-07 20:35 | 31.84324 | -84.79359 | 33498 ft | 426 kts | 326° |
| 2026-05-07 20:36 | 31.87193 | -84.80804 | 33196 ft | 428 kts | 326° |
| 2026-05-07 20:36 | 31.89927 | -84.82180 | 32918 ft | 428 kts | 326° |
| 2026-05-07 20:36 | 31.92648 | -84.83539 | 32674 ft | 430 kts | 326° |
| 2026-05-07 20:36 | 31.95373 | -84.84846 | 32429 ft | 431 kts | 327° |
| 2026-05-07 20:37 | 31.98168 | -84.86168 | 32181 ft | 430 kts | 327° |
| 2026-05-07 20:37 | 32.00924 | -84.87471 | 31937 ft | 428 kts | 327° |
| 2026-05-07 20:37 | 32.03712 | -84.88795 | 31688 ft | 425 kts | 327° |
| 2026-05-07 20:37 | 32.06416 | -84.90086 | 31448 ft | 422 kts | 326° |
| 2026-05-07 20:38 | 32.09101 | -84.91373 | 31208 ft | 421 kts | 326° |
| 2026-05-07 20:38 | 32.11543 | -84.92549 | 30990 ft | 418 kts | 326° |
| 2026-05-07 20:38 | 32.14139 | -84.93799 | 30754 ft | 415 kts | 326° |
| 2026-05-07 20:38 | 32.16797 | -84.95082 | 30514 ft | 415 kts | 326° |
| 2026-05-07 20:39 | 32.19473 | -84.96370 | 30269 ft | 412 kts | 326° |
| 2026-05-07 20:39 | 32.22113 | -84.97640 | 30025 ft | 409 kts | 326° |
| 2026-05-07 20:39 | 32.24722 | -84.98887 | 29784 ft | 406 kts | 326° |
| 2026-05-07 20:39 | 32.26921 | -84.99937 | 29586 ft | 404 kts | 326° |
| 2026-05-07 20:40 | 32.29547 | -85.01194 | 29336 ft | 403 kts | 326° |
| 2026-05-07 20:40 | 32.31437 | -85.02104 | 29155 ft | 401 kts | 326° |
| 2026-05-07 20:40 | 32.33193 | -85.02950 | 28989 ft | 400 kts | 326° |
| 2026-05-07 20:40 | 32.35505 | -85.04066 | 28770 ft | 399 kts | 326° |
| 2026-05-07 20:41 | 32.37843 | -85.05195 | 28546 ft | 398 kts | 326° |
| 2026-05-07 20:41 | 32.39636 | -85.06062 | 28373 ft | 396 kts | 326° |
| 2026-05-07 20:41 | 32.41748 | -85.07086 | 28170 ft | 394 kts | 326° |
| 2026-05-07 20:41 | 32.43498 | -85.07935 | 27998 ft | 393 kts | 326° |
| 2026-05-07 20:42 | 32.44513 | -85.08426 | 27897 ft | 392 kts | 326° |
| 2026-05-07 20:42 | 32.46397 | -85.09338 | 27714 ft | 391 kts | 326° |
| 2026-05-07 20:42 | 32.48132 | -85.10180 | 27541 ft | 391 kts | 326° |
| 2026-05-07 20:42 | 32.48681 | -85.10445 | 27488 ft | 390 kts | 326° |
| 2026-05-07 20:43 | 32.49714 | -85.10944 | 27386 ft | 390 kts | 326° |
| 2026-05-07 20:43 | 32.54106 | -85.13062 | 26959 ft | 389 kts | 326° |
| 2026-05-07 20:43 | 32.56583 | -85.14256 | 26716 ft | 386 kts | 326° |
| 2026-05-07 20:44 | 32.59060 | -85.15456 | 26459 ft | 386 kts | 326° |
| 2026-05-07 20:44 | 32.61553 | -85.16665 | 26177 ft | 385 kts | 326° |
| 2026-05-07 20:44 | 32.64011 | -85.17861 | 25849 ft | 382 kts | 326° |
| 2026-05-07 20:44 | 32.66482 | -85.19065 | 25431 ft | 380 kts | 326° |
| 2026-05-07 20:45 | 32.68910 | -85.20248 | 24975 ft | 377 kts | 326° |
| 2026-05-07 20:45 | 32.71392 | -85.21458 | 24501 ft | 374 kts | 326° |
| 2026-05-07 20:45 | 32.73766 | -85.22613 | 24035 ft | 372 kts | 326° |
| 2026-05-07 20:45 | 32.76177 | -85.23747 | 23548 ft | 374 kts | 329° |
| 2026-05-07 20:46 | 32.78691 | -85.24459 | 23062 ft | 387 kts | 340° |
| 2026-05-07 20:46 | 32.81406 | -85.24644 | 22591 ft | 400 kts | 350° |
| 2026-05-07 20:46 | 32.82639 | -85.24558 | 22389 ft | 402 kts | 353° |
| 2026-05-07 20:46 | 32.84605 | -85.24346 | 22051 ft | 403 kts | 354° |
| 2026-05-07 20:47 | 32.85405 | -85.24248 | 21913 ft | 403 kts | 354° |
| 2026-05-07 20:47 | 32.88212 | -85.23884 | 21429 ft | 402 kts | 354° |
| 2026-05-07 20:47 | 32.90962 | -85.23530 | 20956 ft | 400 kts | 354° |
| 2026-05-07 20:47 | 32.93761 | -85.23185 | 20468 ft | 398 kts | 354° |
| 2026-05-07 20:48 | 32.96487 | -85.22857 | 19984 ft | 397 kts | 354° |
| 2026-05-07 20:48 | 32.99166 | -85.22535 | 19495 ft | 397 kts | 355° |
| 2026-05-07 20:48 | 33.01888 | -85.21752 | 18978 ft | 418 kts | 13° |
| 2026-05-07 20:48 | 33.03738 | -85.20484 | 18615 ft | 434 kts | 28° |
| 2026-05-07 20:49 | 33.05957 | -85.17929 | 18149 ft | 442 kts | 41° |
| 2026-05-07 20:49 | 33.08028 | -85.15131 | 17616 ft | 443 kts | 43° |
| 2026-05-07 20:49 | 33.10072 | -85.12322 | 17085 ft | 441 kts | 42° |
| 2026-05-07 20:49 | 33.11975 | -85.09759 | 16627 ft | 438 kts | 41° |
| 2026-05-07 20:50 | 33.14021 | -85.07064 | 16145 ft | 434 kts | 40° |
| 2026-05-07 20:50 | 33.16044 | -85.04430 | 15679 ft | 430 kts | 40° |
| 2026-05-07 20:50 | 33.18093 | -85.01773 | 15218 ft | 426 kts | 40° |
| 2026-05-07 20:50 | 33.20074 | -84.99195 | 14769 ft | 422 kts | 40° |
| 2026-05-07 20:51 | 33.22060 | -84.96610 | 14311 ft | 417 kts | 40° |
| 2026-05-07 20:51 | 33.23809 | -84.94334 | 13907 ft | 414 kts | 39° |
| 2026-05-07 20:51 | 33.25286 | -84.92413 | 13559 ft | 411 kts | 39° |
| 2026-05-07 20:51 | 33.25583 | -84.92027 | 13487 ft | 411 kts | 39° |
| 2026-05-07 20:52 | 33.26564 | -84.90749 | 13250 ft | 409 kts | 39° |
| 2026-05-07 20:52 | 33.28356 | -84.88419 | 12810 ft | 405 kts | 40° |
| 2026-05-07 20:52 | 33.29485 | -84.86951 | 12536 ft | 402 kts | 39° |
| 2026-05-07 20:53 | 33.31278 | -84.84613 | 12128 ft | 397 kts | 40° |
| 2026-05-07 20:53 | 33.32529 | -84.83051 | 11980 ft | 387 kts | 38° |
| 2026-05-07 20:53 | 33.34061 | -84.81229 | 11959 ft | 373 kts | 37° |
| 2026-05-07 20:53 | 33.35249 | -84.79844 | 11961 ft | 371 kts | 36° |
| 2026-05-07 20:54 | 33.37250 | -84.77537 | 11965 ft | 370 kts | 36° |
| 2026-05-07 20:54 | 33.39116 | -84.75386 | 11967 ft | 371 kts | 36° |
| 2026-05-07 20:54 | 33.41000 | -84.73208 | 11975 ft | 371 kts | 36° |
| 2026-05-07 20:54 | 33.42835 | -84.71077 | 11983 ft | 371 kts | 36° |
| 2026-05-07 20:55 | 33.44649 | -84.68966 | 11995 ft | 371 kts | 36° |
| 2026-05-07 20:55 | 33.46447 | -84.66872 | 11987 ft | 370 kts | 36° |
| 2026-05-07 20:55 | 33.48235 | -84.64788 | 11978 ft | 370 kts | 36° |
| 2026-05-07 20:55 | 33.49807 | -84.62955 | 11980 ft | 370 kts | 36° |
| 2026-05-07 20:56 | 33.50880 | -84.61702 | 11974 ft | 370 kts | 36° |
| 2026-05-07 20:56 | 33.51735 | -84.60701 | 11972 ft | 371 kts | 37° |
| 2026-05-07 20:56 | 33.53093 | -84.58739 | 11817 ft | 382 kts | 53° |
| 2026-05-07 20:56 | 33.53966 | -84.55617 | 11574 ft | 390 kts | 81° |
| 2026-05-07 20:57 | 33.54021 | -84.52543 | 11368 ft | 389 kts | 91° |
| 2026-05-07 20:57 | 33.53901 | -84.50079 | 11184 ft | 387 kts | 93° |
| 2026-05-07 20:57 | 33.53755 | -84.47004 | 10948 ft | 384 kts | 92° |
| 2026-05-07 20:57 | 33.53691 | -84.44905 | 10783 ft | 382 kts | 90° |
| 2026-05-07 20:58 | 33.53652 | -84.42361 | 10590 ft | 377 kts | 89° |
| 2026-05-07 20:58 | 33.53644 | -84.39324 | 10353 ft | 368 kts | 88° |
| 2026-05-07 20:58 | 33.53651 | -84.36289 | 10107 ft | 360 kts | 89° |
| 2026-05-07 20:58 | 33.53659 | -84.33319 | 9863 ft | 351 kts | 89° |
| 2026-05-07 20:59 | 33.53662 | -84.31658 | 9722 ft | 347 kts | 89° |
| 2026-05-07 20:59 | 33.53663 | -84.30791 | 9633 ft | 345 kts | 89° |
| 2026-05-07 20:59 | 33.53664 | -84.29987 | 9543 ft | 344 kts | 89° |
| 2026-05-07 20:59 | 33.53664 | -84.29021 | 9426 ft | 342 kts | 89° |
| 2026-05-07 21:00 | 33.53667 | -84.26423 | 9089 ft | 339 kts | 89° |
| 2026-05-07 21:00 | 33.53670 | -84.23896 | 8756 ft | 336 kts | 89° |
| 2026-05-07 21:00 | 33.53674 | -84.21493 | 8442 ft | 333 kts | 89° |
| 2026-05-07 21:00 | 33.53711 | -84.19949 | 8237 ft | 331 kts | 83° |
| 2026-05-07 21:01 | 33.54045 | -84.18143 | 7974 ft | 325 kts | 65° |
| 2026-05-07 21:01 | 33.54958 | -84.16260 | 7677 ft | 313 kts | 44° |
| 2026-05-07 21:01 | 33.56639 | -84.14709 | 7306 ft | 294 kts | 17° |
| 2026-05-07 21:01 | 33.57954 | -84.14248 | 7063 ft | 281 kts | 360° |
| 2026-05-07 21:02 | 33.59984 | -84.14523 | 6660 ft | 259 kts | 330° |
| 2026-05-07 21:02 | 33.61002 | -84.15269 | 6275 ft | 255 kts | 313° |
| 2026-05-07 21:02 | 33.61612 | -84.16124 | 5937 ft | 254 kts | 299° |
| 2026-05-07 21:03 | 33.62257 | -84.17719 | 5413 ft | 255 kts | 291° |
| 2026-05-07 21:03 | 33.62693 | -84.19070 | 4973 ft | 253 kts | 288° |
| 2026-05-07 21:03 | 33.63199 | -84.23147 | 3941 ft | 236 kts | 273° |
| 2026-05-07 21:04 | 33.63211 | -84.23721 | 3848 ft | 232 kts | 272° |
| 2026-05-07 21:04 | 33.63218 | -84.24794 | 3679 ft | 228 kts | 271° |
| 2026-05-07 21:04 | 33.63215 | -84.25905 | 3494 ft | 217 kts | 271° |
| 2026-05-07 21:04 | 33.63210 | -84.26638 | 3373 ft | 211 kts | 271° |
| 2026-05-07 21:05 | 33.63205 | -84.27258 | 3272 ft | 205 kts | 271° |
| 2026-05-07 21:05 | 33.63200 | -84.28157 | 3148 ft | 197 kts | 271° |
| 2026-05-07 21:05 | 33.63193 | -84.29761 | 3014 ft | 175 kts | 272° |
| 2026-05-07 21:05 | 33.63191 | -84.30358 | 2900 ft | 170 kts | 272° |
| 2026-05-07 21:06 | 33.63189 | -84.31600 | 2670 ft | 161 kts | 272° |
| 2026-05-07 21:06 | 33.63189 | -84.32343 | 2535 ft | 161 kts | 272° |
| 2026-05-07 21:06 | 33.63189 | -84.32917 | 2442 ft | 161 kts | 272° |
| 2026-05-07 21:06 | 33.63187 | -84.34133 | 2221 ft | 149 kts | 271° |
| 2026-05-07 21:07 | 33.63186 | -84.34539 | 2147 ft | 144 kts | 272° |
| 2026-05-07 21:07 | 33.63184 | -84.35617 | 1956 ft | 133 kts | 272° |
| 2026-05-07 21:07 | 33.63184 | -84.36264 | 1869 ft | 132 kts | 271° |
| 2026-05-07 21:07 | 33.63184 | -84.37183 | 1740 ft | 132 kts | 271° |
| 2026-05-07 21:08 | 33.63183 | -84.38254 | 1584 ft | 131 kts | 272° |
| 2026-05-07 21:08 | 33.63182 | -84.39284 | 1429 ft | 131 kts | 271° |
| 2026-05-07 21:08 | 33.63181 | -84.40196 | 1287 ft | 130 kts | 271° |
| 2026-05-07 21:08 | 33.63181 | -84.40625 | 1218 ft | 130 kts | 272° |
| 2026-05-07 21:09 | 33.63180 | -84.41715 | 1046 ft | 129 kts | 271° |
| 2026-05-07 21:09 | 33.63181 | -84.42375 | 993 ft | 115 kts | 271° |
| 2026-05-07 21:09 | 33.63182 | -84.43157 | 1004 ft | 63 kts | 270° |
| 2026-05-07 21:09 | 33.63182 | -84.43471 | 1008 ft | 27 kts | 276° |
| 2026-05-07 21:10 | 33.63240 | -84.43662 | 1010 ft | 24 kts | 294° |
| 2026-05-07 21:10 | 33.63311 | -84.43728 | 1012 ft | 14 kts | 27° |
| 2026-05-07 21:10 | 33.63374 | -84.43639 | 1011 ft | 15 kts | 46° |
| 2026-05-07 21:10 | 33.63462 | -84.43610 | 1013 ft | 14 kts | 359° |
| 2026-05-07 21:11 | 33.63545 | -84.43607 | 1013 ft | 12 kts | 13° |
| 2026-05-07 21:11 | 33.63582 | -84.43534 | 1011 ft | 13 kts | 90° |
| 2026-05-07 21:11 | 33.63581 | -84.43383 | 1010 ft | 15 kts | 90° |
| 2026-05-07 21:12 | 33.63581 | -84.43303 | 1010 ft | 15 kts | 90° |
| 2026-05-07 21:12 | 33.63581 | -84.43240 | 1009 ft | 16 kts | 90° |
| 2026-05-07 21:12 | 33.63581 | -84.43176 | 1007 ft | 17 kts | 90° |
| 2026-05-07 21:12 | 33.63582 | -84.43120 | 1007 ft | 17 kts | 90° |
| 2026-05-07 21:13 | 33.63583 | -84.42985 | 1007 ft | 13 kts | 91° |
| 2026-05-07 21:13 | 33.63582 | -84.42913 | 1006 ft | 6 kts | 91° |
| 2026-05-07 21:13 | 33.63582 | -84.42872 | 1005 ft | 8 kts | 91° |
| 2026-05-07 21:13 | 33.63581 | -84.42846 | 1004 ft | 9 kts | 90° |
| 2026-05-07 21:14 | 33.63583 | -84.42821 | 1004 ft | 9 kts | 75° |
| 2026-05-07 21:14 | 33.63603 | -84.42786 | 1003 ft | 10 kts | 39° |
| 2026-05-07 21:14 | 33.63652 | -84.42763 | 1003 ft | 11 kts | 21° |
| 2026-05-07 21:14 | 33.63697 | -84.42742 | 1002 ft | 12 kts | 17° |
| 2026-05-07 21:15 | 33.63749 | -84.42734 | 1002 ft | 12 kts | 4° |
| 2026-05-07 21:15 | 33.63808 | -84.42732 | 1004 ft | 11 kts | 358° |
| 2026-05-07 21:15 | 33.63870 | -84.42734 | 1004 ft | 11 kts | 359° |
| 2026-05-07 21:15 | 33.63897 | -84.42734 | 1004 ft | 7 kts | 1° |
| 2026-05-07 21:16 | 33.63926 | -84.42733 | 1004 ft | 8 kts | 1° |
| 2026-05-07 21:16 | 33.63954 | -84.42732 | 1004 ft | 8 kts | 1° |
| 2026-05-07 21:16 | 33.63981 | -84.42731 | 1004 ft | 6 kts | 1° |
| 2026-05-07 21:16 | 33.63998 | -84.42730 | 1004 ft | 4 kts | 16° |
| 2026-05-07 21:17 | 33.64005 | -84.42720 | 1004 ft | 3 kts | 73° |
| 2026-05-07 21:17 | 33.64006 | -84.42705 | 1004 ft | 5 kts | 90° |
| 2026-05-07 21:17 | 33.64006 | -84.42688 | 1004 ft | 5 kts | 90° |
| 2026-05-07 21:17 | 33.64006 | -84.42668 | 1004 ft | 4 kts | 90° |
| 2026-05-07 21:18 | 33.64006 | -84.42658 | 1004 ft | 3 kts | 91° |
| 2026-05-07 21:18 | 33.64006 | -84.42648 | 1003 ft | 3 kts | 90° |
| 2026-05-07 21:18 | 33.64006 | -84.42643 | 1003 ft | 0 kts | 90° |
| 2026-05-07 21:18 | 33.64006 | -84.42635 | 1003 ft | 0 kts | 90° |
| 2026-05-07 21:19 | 33.64006 | -84.42629 | 1002 ft | 0 kts | 90° |
| 2026-05-07 21:19 | 33.64006 | -84.42626 | 1002 ft | 0 kts | 90° |